Time;durP1;ratioP1;P1;durP2;ratioP2;P2;SDS_P1;SDS_P2;PMS_P1;PMS_P2;Temp;Humidity;BMP_temperature;BMP_pressure;BME280_temperature;BME280_humidity;BME280_pressure;Samples;Min_cycle;Max_cycle;Signal;HPM_P1;HPM_P2
2021/05/01 00:01:27;;;;;;;13.23;8.63;;;;;;;6.59;95.95;100514.13;5083254;28;20021;-79
2021/05/01 00:03:52;;;;;;;16.38;9.60;;;;;;;6.59;95.81;100511.53;5084840;28;20028;-79
2021/05/01 00:06:17;;;;;;;12.18;9.13;;;;;;;6.55;96.53;100508.97;5086541;28;20091;-79
2021/05/01 00:08:43;;;;;;;16.40;10.60;;;;;;;6.52;96.55;100509.81;5087777;28;20028;-79
2021/05/01 00:11:08;;;;;;;11.35;8.23;;;;;;;6.53;96.02;100505.56;5082452;28;20030;-79
2021/05/01 00:13:34;;;;;;;11.77;8.50;;;;;;;6.55;96.36;100509.81;5082032;28;20028;-79
2021/05/01 00:16:01;;;;;;;11.68;9.05;;;;;;;6.52;96.28;100501.25;5082544;28;20485;-79
2021/05/01 00:18:26;;;;;;;12.02;8.25;;;;;;;6.55;95.92;100503.81;5098303;28;20400;-79
2021/05/01 00:20:52;;;;;;;13.27;9.02;;;;;;;6.52;95.95;100503.81;5081941;28;20080;-79
2021/05/01 00:23:18;;;;;;;11.98;8.38;;;;;;;6.55;95.71;100496.94;5082704;28;20025;-80
2021/05/01 00:25:43;;;;;;;11.52;8.82;;;;;;;6.52;96.33;100502.09;5100592;28;20392;-79
2021/05/01 00:28:10;;;;;;;12.38;9.30;;;;;;;6.47;96.27;100496.13;5084502;28;20107;-79
2021/05/01 00:30:36;;;;;;;13.35;8.63;;;;;;;6.45;96.70;100500.41;5099581;28;20017;-79
2021/05/01 00:33:01;;;;;;;12.52;8.50;;;;;;;6.46;96.52;100499.53;5084436;28;20023;-79
2021/05/01 00:35:27;;;;;;;11.30;8.77;;;;;;;6.46;96.62;100499.53;5085263;28;20024;-79
2021/05/01 00:37:53;;;;;;;11.50;7.70;;;;;;;6.47;95.88;100501.28;5100244;28;20107;-79
2021/05/01 00:40:18;;;;;;;12.15;8.48;;;;;;;6.46;95.75;100499.53;5084848;28;20021;-79
2021/05/01 00:42:43;;;;;;;11.20;8.18;;;;;;;6.48;96.35;100502.13;5098114;28;20028;-79
2021/05/01 00:45:09;;;;;;;16.20;8.27;;;;;;;6.45;96.05;100508.13;5081126;28;20040;-79
2021/05/01 00:47:34;;;;;;;11.98;7.88;;;;;;;6.47;95.71;100497.84;5097599;28;20063;-79
2021/05/01 00:50:01;;;;;;;13.57;8.57;;;;;;;6.44;96.09;100501.28;5102773;28;20025;-79
2021/05/01 00:52:27;;;;;;;13.05;8.80;;;;;;;6.42;96.58;100497.84;5081978;28;20021;-79
2021/05/01 00:54:52;;;;;;;11.43;8.52;;;;;;;6.38;96.77;100501.28;5082991;28;20103;-80
2021/05/01 00:57:17;;;;;;;12.13;7.80;;;;;;;6.36;97.09;100490.13;5082548;28;20074;-79
2021/05/01 00:59:43;;;;;;;12.57;8.02;;;;;;;6.34;97.59;100494.41;5080480;28;20460;-80
2021/05/01 01:02:08;;;;;;;10.50;7.65;;;;;;;6.34;97.26;100485.00;5098976;28;20104;-80
2021/05/01 01:04:34;;;;;;;10.50;7.80;;;;;;;6.31;97.22;100484.13;5097105;28;20119;-79
2021/05/01 01:06:59;;;;;;;11.95;7.60;;;;;;;6.33;96.96;100485.81;5081456;28;20025;-79
2021/05/01 01:09:25;;;;;;;12.27;7.40;;;;;;;6.30;97.87;100482.41;5097077;28;20476;-80
2021/05/01 01:11:50;;;;;;;11.90;7.70;;;;;;;6.34;97.48;100479.84;5098755;28;20024;-80
2021/05/01 01:14:15;;;;;;;10.95;7.93;;;;;;;6.35;97.31;100475.53;5097579;28;20028;-79
2021/05/01 01:16:44;;;;;;;12.65;8.45;;;;;;;6.31;97.52;100484.13;5097232;28;20084;-79
2021/05/01 01:19:10;;;;;;;10.50;7.55;;;;;;;6.30;97.98;100483.25;5098681;28;20027;-79
2021/05/01 01:21:45;;;;;;;10.82;7.45;;;;;;;6.30;97.92;100487.56;5098405;28;20103;-79
2021/05/01 01:24:11;;;;;;;11.00;7.30;;;;;;;6.26;97.63;100480.72;5083513;28;20032;-79
2021/05/01 01:26:38;;;;;;;11.23;8.25;;;;;;;6.28;98.08;100479.84;5098361;28;20024;-79
2021/05/01 01:29:05;;;;;;;14.15;8.82;;;;;;;6.24;98.34;100478.13;5084366;28;20073;-79
2021/05/01 01:31:30;;;;;;;11.70;7.70;;;;;;;6.21;98.58;100478.97;5079286;28;20081;-79
2021/05/01 01:33:56;;;;;;;10.23;7.97;;;;;;;6.18;98.90;100478.97;5084506;28;20479;-79
2021/05/01 01:36:21;;;;;;;12.10;7.55;;;;;;;6.17;98.52;100481.56;5084539;28;20024;-79
2021/05/01 01:38:46;;;;;;;10.65;7.47;;;;;;;6.17;98.91;100477.28;5097327;28;20047;-79
2021/05/01 01:41:12;;;;;;;11.95;8.13;;;;;;;6.18;98.91;100473.84;5095945;28;20051;-79
2021/05/01 01:43:37;;;;;;;12.02;7.43;;;;;;;6.14;98.56;100482.44;5081201;28;20028;-79
2021/05/01 01:46:03;;;;;;;18.88;7.53;;;;;;;6.18;98.71;100478.13;5082281;28;20028;-79
2021/05/01 01:48:29;;;;;;;10.20;7.72;;;;;;;6.14;98.83;100473.84;5082609;28;20029;-79
2021/05/01 01:50:54;;;;;;;11.10;7.88;;;;;;;6.13;99.33;100465.28;5099103;28;20028;-79
2021/05/01 01:53:20;;;;;;;12.60;7.63;;;;;;;6.09;99.78;100468.69;5090333;28;20600;-79
2021/05/01 01:55:45;;;;;;;13.25;7.88;;;;;;;6.09;99.96;100470.41;5083355;28;20024;-79
2021/05/01 01:58:10;;;;;;;11.93;7.72;;;;;;;6.08;99.76;100468.72;5082180;28;20027;-79
2021/05/01 02:00:36;;;;;;;10.70;7.97;;;;;;;6.04;100.00;100473.00;5080254;28;20040;-79
2021/05/01 02:03:02;;;;;;;12.38;8.20;;;;;;;6.04;100.00;100475.59;5079943;28;20016;-79
2021/05/01 02:05:27;;;;;;;11.48;7.75;;;;;;;6.02;100.00;100479.88;5098387;28;20073;-80
2021/05/01 02:07:53;;;;;;;10.50;7.20;;;;;;;6.00;100.00;100473.84;5081163;28;20230;-79
2021/05/01 02:10:19;;;;;;;11.88;7.53;;;;;;;6.03;100.00;100475.56;5086754;28;20024;-79
2021/05/01 02:12:45;;;;;;;11.32;8.20;;;;;;;5.99;100.00;100475.56;5082379;28;20485;-79
2021/05/01 02:15:14;;;;;;;11.65;7.45;;;;;;;5.97;100.00;100476.44;5083433;28;20021;-79
2021/05/01 02:17:43;;;;;;;10.93;7.07;;;;;;;5.95;100.00;100473.88;5104537;28;20104;-80
2021/05/01 02:20:11;;;;;;;10.98;7.72;;;;;;;5.95;100.00;100462.72;5101586;28;20024;-79
2021/05/01 02:22:36;;;;;;;10.35;7.20;;;;;;;5.95;100.00;100473.03;5089994;28;20084;-80
2021/05/01 02:25:05;;;;;;;12.50;7.25;;;;;;;5.91;100.00;100466.09;5096689;28;20056;-79
2021/05/01 02:27:30;;;;;;;11.80;7.53;;;;;;;5.90;100.00;100470.41;5079571;28;20066;-79
2021/05/01 02:29:55;;;;;;;10.98;7.05;;;;;;;5.92;100.00;100471.28;5080521;28;20021;-79
2021/05/01 02:32:20;;;;;;;14.13;8.07;;;;;;;5.90;100.00;100469.56;5099785;28;20024;-80
2021/05/01 02:34:46;;;;;;;9.23;6.88;;;;;;;5.87;100.00;100461.81;5079106;28;20021;-79
2021/05/01 02:37:11;;;;;;;10.52;6.30;;;;;;;5.87;100.00;100462.69;5079037;28;20031;-78
2021/05/01 02:39:36;;;;;;;12.77;7.85;;;;;;;5.87;100.00;100466.97;5080287;28;20055;-79
2021/05/01 02:42:02;;;;;;;11.75;7.03;;;;;;;5.85;100.00;100468.69;5096409;28;20016;-79
2021/05/01 02:44:27;;;;;;;12.90;7.45;;;;;;;5.84;100.00;100462.69;5081689;28;20025;-79
2021/05/01 02:46:53;;;;;;;10.18;7.50;;;;;;;5.86;100.00;100460.13;5099692;28;20373;-79
2021/05/01 02:49:18;;;;;;;11.07;6.90;;;;;;;5.84;100.00;100452.38;5097302;22;20070;-74
2021/05/01 02:51:43;;;;;;;11.38;7.45;;;;;;;5.82;100.00;100445.53;5089283;28;20029;-74
2021/05/01 02:54:09;;;;;;;9.80;7.07;;;;;;;5.79;100.00;100446.41;5073582;28;20031;-74
2021/05/01 02:56:34;;;;;;;12.60;7.82;;;;;;;5.82;100.00;100448.09;5089161;28;20369;-74
2021/05/01 02:58:59;;;;;;;12.93;7.78;;;;;;;5.77;100.00;100446.38;5072164;28;20024;-74
2021/05/01 03:01:24;;;;;;;10.85;7.15;;;;;;;5.74;100.00;100443.81;5089116;28;20439;-74
2021/05/01 03:03:50;;;;;;;10.93;7.25;;;;;;;5.75;100.00;100444.66;5088948;28;20035;-74
2021/05/01 03:06:15;;;;;;;10.20;7.30;;;;;;;5.72;100.00;100437.81;5089119;28;20028;-74
2021/05/01 03:08:41;;;;;;;11.77;7.60;;;;;;;5.74;100.00;100432.66;5073335;28;20051;-74
2021/05/01 03:11:06;;;;;;;11.38;6.88;;;;;;;5.69;100.00;100429.22;5073156;28;20027;-76
2021/05/01 03:13:31;;;;;;;9.75;6.90;;;;;;;5.66;100.00;100430.09;5073371;28;20078;-75
2021/05/01 03:15:57;;;;;;;11.18;7.05;;;;;;;5.65;100.00;100425.81;5073333;28;20020;-75
2021/05/01 03:18:22;;;;;;;12.55;5.78;;;;;;;5.63;100.00;100426.66;5073230;28;20085;-75
2021/05/01 03:20:49;;;;;;;10.43;6.18;;;;;;;5.62;100.00;100418.09;5073232;28;20491;-75
2021/05/01 03:23:14;;;;;;;12.13;7.50;;;;;;;5.59;100.00;100417.25;5088805;28;20091;-75
2021/05/01 03:25:39;;;;;;;10.07;6.90;;;;;;;5.57;100.00;100416.38;5088772;28;20058;-75
2021/05/01 03:28:05;;;;;;;11.65;7.68;;;;;;;5.52;100.00;100411.25;5071817;28;20020;-76
2021/05/01 03:30:30;;;;;;;11.88;7.25;;;;;;;5.52;100.00;100406.09;5073032;28;20024;-75
2021/05/01 03:32:56;;;;;;;10.98;7.28;;;;;;;5.50;100.00;100410.38;5073019;28;20032;-75
2021/05/01 03:35:21;;;;;;;12.15;7.75;;;;;;;5.50;100.00;100407.81;5071900;28;20031;-75
2021/05/01 03:37:48;;;;;;;13.70;7.45;;;;;;;5.50;100.00;100410.38;5073027;28;20473;-75
2021/05/01 03:40:13;;;;;;;14.13;8.50;;;;;;;5.46;100.00;100404.38;5071864;28;20031;-76
2021/05/01 03:42:39;;;;;;;12.57;6.97;;;;;;;5.45;100.00;100410.38;5073052;28;20025;-75
2021/05/01 03:45:06;;;;;;;14.38;8.48;;;;;;;5.44;100.00;100405.22;5088686;28;20025;-76
2021/05/01 03:47:31;;;;;;;11.93;7.68;;;;;;;5.45;100.00;100417.22;5088242;28;20035;-75
2021/05/01 03:49:57;;;;;;;10.50;6.28;;;;;;;5.39;100.00;100412.06;5072617;28;20370;-75
2021/05/01 03:52:22;;;;;;;11.90;7.95;;;;;;;5.42;100.00;100412.06;5071865;28;20078;-75
2021/05/01 03:54:47;;;;;;;11.02;7.47;;;;;;;5.39;100.00;100407.81;5072821;28;20052;-75
2021/05/01 03:57:12;;;;;;;14.68;8.98;;;;;;;5.42;100.00;100412.06;5071544;28;20031;-75
2021/05/01 03:59:38;;;;;;;12.02;8.65;;;;;;;5.45;100.00;100406.94;5073210;28;20020;-75
2021/05/01 04:02:05;;;;;;;12.45;9.20;;;;;;;5.45;100.00;100412.06;5072846;28;20077;-75
2021/05/01 04:04:30;;;;;;;13.07;9.15;;;;;;;5.43;100.00;100413.81;5071607;28;20066;-75
2021/05/01 04:06:55;;;;;;;13.43;8.27;;;;;;;5.41;100.00;100412.94;5072782;28;20021;-75
2021/05/01 04:09:20;;;;;;;11.77;7.72;;;;;;;5.38;100.00;100405.22;5072673;28;20029;-75
2021/05/01 04:11:46;;;;;;;13.90;8.80;;;;;;;5.38;100.00;100407.81;5072725;28;20028;-75
2021/05/01 04:14:11;;;;;;;14.15;8.75;;;;;;;5.41;100.00;100410.38;5073074;28;20427;-75
2021/05/01 04:16:36;;;;;;;12.52;8.45;;;;;;;5.37;100.00;100408.66;5072756;28;20025;-75
2021/05/01 04:19:02;;;;;;;13.73;8.13;;;;;;;5.36;100.00;100410.38;5088304;28;20036;-76
2021/05/01 04:21:27;;;;;;;11.57;8.23;;;;;;;5.32;100.00;100417.22;5072636;28;20016;-75
2021/05/01 04:23:53;;;;;;;13.25;8.32;;;;;;;5.29;100.00;100424.06;5073871;28;20028;-75
2021/05/01 04:26:20;;;;;;;12.70;8.95;;;;;;;5.30;100.00;100421.53;5076749;28;20032;-75
2021/05/01 04:28:46;;;;;;;16.55;8.77;;;;;;;5.30;100.00;100421.53;5091930;28;20392;-75
2021/05/01 04:31:11;;;;;;;13.57;8.82;;;;;;;5.28;100.00;100420.66;5091866;28;20026;-75
2021/05/01 04:33:36;;;;;;;15.48;9.48;;;;;;;5.31;100.00;100418.09;5091947;28;20025;-75
2021/05/01 04:36:02;;;;;;;13.63;8.30;;;;;;;5.29;100.00;100422.34;5076123;28;20052;-75
2021/05/01 04:38:27;;;;;;;13.57;8.77;;;;;;;5.30;100.00;100426.66;5075984;28;20027;-75
2021/05/01 04:40:53;;;;;;;12.15;8.10;;;;;;;5.28;100.00;100425.78;5076335;28;20032;-75
2021/05/01 04:43:23;;;;;;;13.68;9.32;;;;;;;5.33;100.00;100418.09;5091637;28;20074;-75
2021/05/01 04:45:49;;;;;;;15.13;9.68;;;;;;;5.27;100.00;100421.53;5091681;28;20082;-75
2021/05/01 04:48:14;;;;;;;14.35;9.30;;;;;;;5.30;100.00;100421.53;5075864;28;20431;-75
2021/05/01 04:50:40;;;;;;;14.25;8.73;;;;;;;5.29;100.00;100414.63;5075789;28;20024;-75
2021/05/01 04:53:05;;;;;;;13.98;8.43;;;;;;;5.27;100.00;100418.09;5075892;28;20373;-75
2021/05/01 04:55:31;;;;;;;11.20;7.50;;;;;;;5.26;100.00;100422.34;5075930;28;20056;-75
2021/05/01 04:57:56;;;;;;;13.63;8.73;;;;;;;5.22;100.00;100423.22;5091253;28;20043;-75
2021/05/01 05:00:22;;;;;;;15.55;8.70;;;;;;;5.17;100.00;100414.66;5075860;28;20021;-75
2021/05/01 05:02:48;;;;;;;15.25;8.95;;;;;;;5.19;100.00;100418.06;5093270;28;20111;-75
2021/05/01 05:05:14;;;;;;;15.00;7.97;;;;;;;5.22;100.00;100424.94;5092169;28;20055;-75
2021/05/01 05:07:40;;;;;;;15.00;9.05;;;;;;;5.22;100.00;100417.22;5075540;28;20031;-75
2021/05/01 05:10:07;;;;;;;13.68;8.75;;;;;;;5.20;100.00;100422.38;5075514;28;20025;-75
2021/05/01 05:12:33;;;;;;;15.20;8.35;;;;;;;5.22;100.00;100420.66;5075561;28;20089;-76
2021/05/01 05:14:58;;;;;;;16.05;7.70;;;;;;;5.25;100.00;100423.22;5074261;28;20555;-75
2021/05/01 05:17:23;;;;;;;12.73;8.13;;;;;;;5.21;100.00;100424.09;5090937;28;20025;-75
2021/05/01 05:19:49;;;;;;;13.77;8.95;;;;;;;5.19;100.00;100422.34;5075382;28;20067;-76
2021/05/01 05:22:14;;;;;;;14.48;8.82;;;;;;;5.18;100.00;100413.78;5074138;28;20017;-75
2021/05/01 05:24:40;;;;;;;15.70;8.63;;;;;;;5.15;100.00;100426.63;5075393;28;20064;-76
2021/05/01 05:27:06;;;;;;;11.75;7.75;;;;;;;5.17;100.00;100418.91;5075082;28;20055;-75
2021/05/01 05:29:32;;;;;;;13.90;7.45;;;;;;;5.06;100.00;100416.34;5075083;28;20389;-75
2021/05/01 05:31:58;;;;;;;14.55;8.45;;;;;;;5.12;100.00;100421.50;5075071;28;20028;-75
2021/05/01 05:34:23;;;;;;;14.32;8.45;;;;;;;5.08;100.00;100418.06;5075065;28;20552;-75
2021/05/01 05:36:49;;;;;;;14.32;8.15;;;;;;;5.08;100.00;100419.78;5074970;28;20024;-75
2021/05/01 05:39:15;;;;;;;13.13;7.43;;;;;;;5.13;100.00;100417.19;5075084;28;20016;-76
2021/05/01 05:41:40;;;;;;;13.13;8.23;;;;;;;5.08;100.00;100417.22;5073696;28;20158;-76
2021/05/01 05:44:06;;;;;;;11.48;7.28;;;;;;;5.03;100.00;100413.75;5074965;28;20078;-76
2021/05/01 05:46:31;;;;;;;14.43;8.55;;;;;;;5.04;100.00;100420.59;5090391;28;20552;-76
2021/05/01 05:48:56;;;;;;;12.30;6.45;;;;;;;5.07;100.00;100428.31;5073327;28;20035;-76
2021/05/01 05:51:22;;;;;;;14.13;5.35;;;;;;;4.98;100.00;100430.88;5074543;28;20038;-76
2021/05/01 05:53:48;;;;;;;13.70;7.53;;;;;;;5.00;100.00;100432.59;5090391;28;20020;-76
2021/05/01 05:56:14;;;;;;;15.02;8.45;;;;;;;5.06;100.00;100434.34;5074688;28;20024;-77
2021/05/01 05:58:40;;;;;;;16.48;8.48;;;;;;;5.18;100.00;100436.94;5090297;28;20024;-76
2021/05/01 06:01:06;;;;;;;17.45;8.63;;;;;;;5.08;100.00;100433.50;5073368;28;20366;-76
2021/05/01 06:03:31;;;;;;;12.57;7.20;;;;;;;5.14;100.00;100432.66;5074480;28;20051;-77
2021/05/01 06:06:12;;;;;;;14.25;8.40;;;;;;;5.21;100.00;100433.50;5074559;28;20366;-77
2021/05/01 06:08:37;;;;;;;13.75;8.43;;;;;;;5.22;100.00;100438.63;5073168;28;20081;-76
2021/05/01 06:11:03;;;;;;;12.45;8.00;;;;;;;5.27;100.00;100436.09;5073005;28;20439;-76
2021/05/01 06:13:32;;;;;;;13.35;8.63;;;;;;;5.16;100.00;100442.91;5073032;28;20047;-76
2021/05/01 06:15:58;;;;;;;12.77;8.30;;;;;;;5.15;100.00;100439.50;5074216;28;20020;-76
2021/05/01 06:18:25;;;;;;;12.82;7.65;;;;;;;5.15;100.00;100438.66;5089837;28;20502;-76
2021/05/01 06:20:50;;;;;;;13.05;8.50;;;;;;;5.22;100.00;100441.22;5074165;28;20052;-76
2021/05/01 06:23:18;;;;;;;12.65;8.38;;;;;;;5.25;99.76;100441.22;5074233;28;20052;-76
2021/05/01 06:25:45;;;;;;;12.88;8.85;;;;;;;5.28;99.30;100445.50;5074064;28;20478;-76
2021/05/01 06:28:10;;;;;;;12.05;7.93;;;;;;;5.28;99.68;100436.06;5072706;28;20481;-76
2021/05/01 06:30:39;;;;;;;14.75;8.73;;;;;;;5.39;99.58;100435.22;5089453;28;20024;-76
2021/05/01 06:33:10;;;;;;;12.48;7.20;;;;;;;5.40;98.21;100439.53;5073898;28;20036;-76
2021/05/01 06:35:39;;;;;;;14.00;8.77;;;;;;;5.53;98.94;100438.66;5089612;28;20024;-77
2021/05/01 06:38:05;;;;;;;13.63;8.48;;;;;;;5.43;97.72;100444.69;5073776;28;20029;-77
2021/05/01 06:40:34;;;;;;;12.65;7.82;;;;;;;5.35;97.55;100439.50;5089530;28;20039;-76
2021/05/01 06:43:10;;;;;;;12.65;7.95;;;;;;;5.49;97.41;100439.53;5089431;28;20157;-77
2021/05/01 06:45:39;;;;;;;13.18;7.78;;;;;;;5.69;96.94;100442.94;5089487;28;20025;-77
2021/05/01 06:48:07;;;;;;;12.55;7.13;;;;;;;5.69;96.05;100442.94;5073097;28;20029;-77
2021/05/01 06:50:33;;;;;;;14.30;8.88;;;;;;;5.74;95.83;100446.38;5073544;28;20392;-77
2021/05/01 06:53:00;;;;;;;10.73;7.10;;;;;;;5.73;95.44;100448.97;5073529;28;20099;-77
2021/05/01 06:55:27;;;;;;;14.93;7.97;;;;;;;5.81;95.51;100447.25;5089603;28;20119;-78
2021/05/01 06:57:55;;;;;;;15.00;8.02;;;;;;;5.80;94.53;100452.41;5089466;28;20024;-77
2021/05/01 07:00:25;;;;;;;13.15;7.35;;;;;;;6.07;94.20;100447.25;5089429;28;20138;-77
2021/05/01 07:02:54;;;;;;;13.30;8.20;;;;;;;6.38;93.02;100449.78;5089446;28;20046;-77
2021/05/01 07:05:23;;;;;;;12.75;7.63;;;;;;;6.57;91.59;100445.41;5089344;28;20031;-78
2021/05/01 07:07:48;;;;;;;13.65;7.57;;;;;;;6.52;92.40;100452.28;5073765;28;20029;-77
2021/05/01 07:10:15;;;;;;;12.07;7.75;;;;;;;6.59;91.66;100447.13;5072209;28;20028;-77
2021/05/01 07:12:41;;;;;;;12.52;7.93;;;;;;;6.71;91.38;100450.50;5072248;28;20021;-77
2021/05/01 07:15:09;;;;;;;12.68;7.65;;;;;;;6.88;90.71;100453.88;5073491;28;20507;-77
2021/05/01 07:17:35;;;;;;;13.05;8.10;;;;;;;6.76;89.99;100447.03;5073549;28;20055;-78
2021/05/01 07:20:03;;;;;;;14.43;7.25;;;;;;;6.73;90.17;100454.78;5090294;28;20437;-77
2021/05/01 07:22:29;;;;;;;12.80;7.55;;;;;;;6.80;89.88;100453.03;5089272;28;20021;-77
2021/05/01 07:24:54;;;;;;;13.13;7.78;;;;;;;7.06;90.23;100443.44;5088940;28;20025;-77
2021/05/01 07:27:30;;;;;;;17.67;6.85;;;;;;;6.77;90.03;100451.31;5073789;28;20020;-78
2021/05/01 07:29:59;;;;;;;12.25;7.32;;;;;;;7.18;88.94;100444.25;5089504;28;20056;-78
2021/05/01 07:32:29;;;;;;;14.82;7.75;;;;;;;7.17;88.21;100448.53;5096414;28;20036;-77
2021/05/01 07:34:57;;;;;;;11.15;5.60;;;;;;;6.81;89.17;100449.63;5092224;28;20083;-77
2021/05/01 07:37:26;;;;;;;13.45;5.85;;;;;;;6.83;87.54;100450.44;5089144;28;20024;-76
2021/05/01 07:39:52;;;;;;;13.10;7.45;;;;;;;7.12;87.65;100453.72;5088769;28;20078;-77
2021/05/01 07:42:20;;;;;;;12.98;7.38;;;;;;;7.90;85.74;100443.69;5073028;28;20024;-78
2021/05/01 07:44:47;;;;;;;11.40;6.75;;;;;;;8.11;82.40;100446.06;5073010;28;20017;-78
2021/05/01 07:47:15;;;;;;;13.10;7.28;;;;;;;8.16;83.18;100441.72;5073389;28;20538;-77
2021/05/01 07:49:40;;;;;;;12.02;6.70;;;;;;;7.60;84.23;100440.50;5073238;28;20032;-78
2021/05/01 07:52:07;;;;;;;12.80;5.78;;;;;;;7.42;84.46;100448.38;5089646;28;20523;-77
2021/05/01 07:54:33;;;;;;;11.40;7.43;;;;;;;7.79;84.78;100441.22;5073245;28;20107;-78
2021/05/01 07:56:59;;;;;;;12.52;7.43;;;;;;;8.36;82.31;100436.34;5071701;28;20515;-77
2021/05/01 07:59:24;;;;;;;10.90;6.95;;;;;;;8.75;81.76;100445.38;5074952;28;20036;-77
2021/05/01 08:01:49;;;;;;;12.25;8.00;;;;;;;8.62;81.43;100438.66;5092364;28;20116;-77
2021/05/01 08:04:15;;;;;;;14.18;7.32;;;;;;;8.97;80.64;100434.75;5092487;28;20021;-77
2021/05/01 08:06:40;;;;;;;11.70;7.28;;;;;;;8.74;80.54;100437.63;5076793;28;20063;-75
2021/05/01 08:09:05;;;;;;;16.40;9.23;;;;;;;8.88;79.22;100434.88;5075377;28;20028;-77
2021/05/01 08:11:31;;;;;;;13.25;8.55;;;;;;;8.70;78.32;100433.38;5076666;28;20430;-76
2021/05/01 08:13:56;;;;;;;11.38;6.30;;;;;;;8.48;78.77;100431.06;5076674;28;20028;-76
2021/05/01 08:16:21;;;;;;;12.57;7.68;;;;;;;8.46;79.54;100443.13;5092400;28;20494;-76
2021/05/01 08:18:47;;;;;;;10.52;5.97;;;;;;;9.36;75.78;100433.34;5076584;28;20485;-76
2021/05/01 08:21:12;;;;;;;10.27;6.68;;;;;;;10.21;72.82;100435.31;5091643;28;20036;-76
2021/05/01 08:23:38;;;;;;;11.45;7.10;;;;;;;10.82;72.29;100428.94;5091726;28;20025;-77
2021/05/01 08:26:05;;;;;;;11.75;7.03;;;;;;;11.59;69.84;100426.34;5076573;28;20024;-76
2021/05/01 08:28:30;;;;;;;11.68;6.60;;;;;;;10.08;71.72;100424.34;5076226;28;20035;-76
2021/05/01 08:30:56;;;;;;;11.63;5.43;;;;;;;9.24;73.90;100420.56;5074942;28;20024;-77
2021/05/01 08:33:21;;;;;;;11.43;5.85;;;;;;;10.32;70.86;100402.31;5075077;28;20024;-76
2021/05/01 08:35:47;;;;;;;11.45;6.30;;;;;;;10.59;69.79;100415.59;5074955;28;20028;-76
2021/05/01 08:38:12;;;;;;;12.60;6.68;;;;;;;10.73;69.27;100413.59;5092526;28;20024;-76
2021/05/01 08:40:38;;;;;;;10.85;6.15;;;;;;;11.19;68.37;100409.97;5076185;28;20408;-77
2021/05/01 08:43:03;;;;;;;10.65;6.45;;;;;;;11.50;66.28;100406.66;5074823;28;20028;-76
2021/05/01 08:45:31;;;;;;;12.73;6.60;;;;;;;11.96;64.88;100410.72;5074788;28;20024;-76
2021/05/01 08:47:59;;;;;;;17.15;10.95;;;;;;;11.78;63.86;100398.16;5117547;22;20108;-81
2021/05/01 08:50:31;;;;;;;12.52;7.25;;;;;;;10.53;67.15;100398.44;5079192;28;20514;-79
2021/05/01 08:52:58;;;;;;;15.20;7.45;;;;;;;12.20;63.20;100399.66;5075427;28;20024;-77
2021/05/01 08:55:25;;;;;;;10.88;6.30;;;;;;;11.62;64.28;100406.34;5076257;28;20108;-78
2021/05/01 08:57:51;;;;;;;13.40;9.00;;;;;;;11.65;65.52;100395.03;5076913;28;20028;-78
2021/05/01 09:00:17;;;;;;;14.35;8.68;;;;;;;12.01;65.29;100390.66;5075959;28;20491;-77
2021/05/01 09:02:42;;;;;;;10.52;6.97;;;;;;;12.72;63.28;100391.28;5075550;28;20111;-78
2021/05/01 09:05:13;;;;;;;9.95;6.30;;;;;;;12.27;63.96;100396.88;5092853;28;20020;-78
2021/05/01 09:07:42;;;;;;;12.93;7.03;;;;;;;12.70;62.88;100393.06;5077368;28;20027;-78
2021/05/01 09:10:08;;;;;;;11.93;6.95;;;;;;;13.30;61.48;100385.13;5077799;28;20032;-78
2021/05/01 09:12:40;;;;;;;10.48;6.05;;;;;;;12.00;63.22;100390.69;5078286;28;20024;-78
2021/05/01 09:15:08;;;;;;;10.23;6.43;;;;;;;12.62;61.13;100390.66;5078583;28;20028;-79
2021/05/01 09:17:35;;;;;;;11.30;7.90;;;;;;;13.37;59.09;100380.56;5093751;28;20021;-78
2021/05/01 09:20:05;;;;;;;9.38;6.32;;;;;;;13.46;57.17;100379.44;5079863;28;20481;-78
2021/05/01 09:22:30;;;;;;;10.77;7.13;;;;;;;13.85;57.61;100372.00;5078805;28;20029;-78
2021/05/01 09:25:07;;;;;;;12.30;6.88;;;;;;;13.08;57.14;100387.53;5095374;28;20031;-79
2021/05/01 09:27:34;;;;;;;10.80;6.05;;;;;;;13.24;58.90;100381.81;5077754;28;20036;-78
2021/05/01 09:30:11;;;;;;;9.48;6.22;;;;;;;12.49;60.71;100391.91;5099784;28;20035;-79
2021/05/01 09:32:37;;;;;;;10.10;6.45;;;;;;;13.11;58.69;100390.03;5103339;28;20024;-80
2021/05/01 09:35:02;;;;;;;26.20;7.60;;;;;;;13.43;56.99;100388.19;5083029;28;20029;-81
2021/05/01 09:37:29;;;;;;;10.07;6.55;;;;;;;13.75;56.86;100381.03;5083621;28;20028;-81
2021/05/01 09:39:58;;;;;;;10.43;6.40;;;;;;;12.82;58.07;100383.13;5099573;28;20021;-81
2021/05/01 09:42:27;;;;;;;11.95;7.03;;;;;;;13.43;55.94;100377.78;5097087;28;20028;-81
2021/05/01 09:45:09;;;;;;;10.48;6.50;;;;;;;14.59;55.10;100385.03;5081437;28;20020;-81
2021/05/01 09:47:35;;;;;;;10.60;6.90;;;;;;;13.00;58.69;100386.91;5081511;28;20029;-81
2021/05/01 09:50:17;;;;;;;9.13;5.93;;;;;;;11.95;63.14;100389.06;5079038;28;20430;-81
2021/05/01 09:52:57;;;;;;;9.98;5.40;;;;;;;11.30;64.61;100388.97;5081714;28;20380;-82
2021/05/01 09:55:46;;;;;;;11.60;6.72;;;;;;;10.96;66.98;100394.94;5097155;28;20017;-81
2021/05/01 09:58:26;;;;;;;12.82;7.07;;;;;;;11.36;65.55;100390.53;5083539;28;20040;-81
2021/05/01 10:00:54;;;;;;;10.05;6.72;;;;;;;11.05;64.13;100384.34;5081587;28;20052;-81
2021/05/01 10:03:25;;;;;;;10.20;7.13;;;;;;;11.02;65.20;100388.72;5081052;28;20103;-81
2021/05/01 10:05:53;;;;;;;12.68;6.80;;;;;;;11.46;65.46;100379.06;5078754;28;20024;-81
2021/05/01 10:08:20;;;;;;;9.27;6.22;;;;;;;11.09;64.34;100377.34;5096463;28;20115;-81
2021/05/01 10:10:46;;;;;;;9.82;6.68;;;;;;;12.50;61.06;100372.81;5081384;28;20028;-81
2021/05/01 10:13:14;;;;;;;10.15;6.80;;;;;;;13.33;58.47;100358.13;5080533;28;20021;-81
2021/05/01 10:15:40;;;;;;;10.35;6.45;;;;;;;13.81;56.28;100350.41;5083009;28;20064;-81
2021/05/01 10:18:13;;;;;;;9.80;6.57;;;;;;;13.85;56.54;100343.31;5081960;28;20029;-82
2021/05/01 10:20:48;;;;;;;9.57;5.65;;;;;;;12.27;61.35;100342.28;5081043;28;20021;-80
2021/05/01 10:23:14;;;;;;;;;;;;;;;12.18;62.44;100343.38;5095648;28;20039;-80
2021/05/01 10:25:41;;;;;;;14.45;6.43;;;;;;;13.20;58.31;100330.75;5079322;28;19958;-80
2021/05/01 10:28:13;;;;;;;9.70;6.38;;;;;;;11.57;63.65;100334.63;5078993;28;20093;-81
2021/05/01 10:30:49;;;;;;;11.80;6.78;;;;;;;11.12;63.62;100335.75;5095471;28;20027;-80
2021/05/01 10:33:24;;;;;;;11.25;6.82;;;;;;;12.08;61.70;100336.75;5078382;28;20021;-81
2021/05/01 10:35:56;;;;;;;12.40;7.15;;;;;;;11.41;66.30;100332.41;5095274;28;20447;-81
2021/05/01 10:38:22;;;;;;;11.40;6.93;;;;;;;11.17;64.88;100339.06;5093837;28;20016;-82
2021/05/01 10:41:01;;;;;;;12.32;7.55;;;;;;;12.69;60.34;100334.97;5097727;28;20544;-82
2021/05/01 10:43:32;;;;;;;9.75;6.85;;;;;;;14.04;56.30;100320.06;5098642;28;20081;-83
2021/05/01 10:46:09;;;;;;;11.80;6.82;;;;;;;12.20;62.08;100332.06;5095037;28;20107;-83
2021/05/01 10:48:47;;;;;;;10.20;7.00;;;;;;;11.79;64.37;100329.69;5096315;28;20020;-83
2021/05/01 10:51:14;;;;;;;11.02;7.43;;;;;;;11.64;64.18;100336.19;5078548;28;20044;-83
2021/05/01 10:53:41;;;;;;;11.13;7.25;;;;;;;12.31;62.11;100330.88;5076405;28;20158;-83
2021/05/01 10:56:08;;;;;;;12.32;6.70;;;;;;;11.16;65.16;100319.19;5095406;28;20097;-85
2021/05/01 10:58:37;;;;;;;16.08;7.30;;;;;;;11.55;65.56;100319.09;5090321;28;20047;-84
2021/05/01 11:01:05;;;;;;;10.38;7.40;;;;;;;11.26;66.76;100319.81;5089771;28;20099;-84
2021/05/01 11:03:31;;;;;;;10.75;6.13;;;;;;;11.20;65.35;100330.34;5074080;28;20025;-84
2021/05/01 11:05:59;;;;;;;10.57;6.93;;;;;;;11.18;64.80;100322.59;5078191;28;20075;-85
2021/05/01 11:08:35;;;;;;;11.45;6.75;;;;;;;11.28;65.68;100318.88;5093800;28;20020;-83
2021/05/01 11:11:02;;;;;;;10.13;7.25;;;;;;;11.44;64.86;100324.53;5095301;28;20021;-82
2021/05/01 11:13:29;;;;;;;11.35;6.43;;;;;;;11.23;63.60;100325.91;5096401;28;20028;-82
2021/05/01 11:16:00;;;;;;;12.23;7.03;;;;;;;11.21;66.67;100330.31;5097756;28;20027;-82
2021/05/01 11:18:27;;;;;;;10.60;7.38;;;;;;;11.12;65.86;100327.09;5080559;28;20024;-83
2021/05/01 11:20:59;;;;;;;10.00;7.32;;;;;;;11.20;65.81;100336.38;5082346;28;20425;-82